Time;durP1;ratioP1;P1;durP2;ratioP2;P2;SDS_P1;SDS_P2;PMS_P1;PMS_P2;Temp;Humidity;BMP_temperature;BMP_pressure;BME280_temperature;BME280_humidity;BME280_pressure;Samples;Min_cycle;Max_cycle;Signal;HPM_P1;HPM_P2
2023/10/07 00:01:59;;;;;;;1.15;0.50;;;;;;;;;;6282832;28;20310;-71
2023/10/07 00:05:05;;;;;;;1.45;0.60;;;;;;;;;;6282572;28;20326;-72
2023/10/07 00:08:12;;;;;;;0.50;0.50;;;;;;;;;;6282609;28;20318;-71
2023/10/07 00:11:16;;;;;;;1.15;0.40;;;;;;;;;;6282073;28;20310;-71
2023/10/07 00:14:29;;;;;;;0.50;0.50;;;;;;;;;;6280380;28;20602;-70
2023/10/07 00:17:39;;;;;;;1.65;0.85;;;;;;;;;;6282525;28;20291;-70
2023/10/07 00:20:47;;;;;;;1.98;1.10;;;;;;;;;;6282162;28;20295;-70
2023/10/07 00:23:53;;;;;;;0.70;0.70;;;;;;;;;;6282141;28;20603;-72
2023/10/07 00:26:59;;;;;;;3.10;0.88;;;;;;;;;;6282576;28;20295;-71
2023/10/07 00:30:12;;;;;;;0.50;0.50;;;;;;;;;;6281686;28;20291;-69
2023/10/07 00:33:21;;;;;;;0.55;0.55;;;;;;;;;;6282141;28;20327;-70
2023/10/07 00:36:41;;;;;;;0.50;0.50;;;;;;;;;;6281304;28;20800;-70
2023/10/07 00:39:47;;;;;;;3.30;1.10;;;;;;;;;;6280173;28;20295;-69
2023/10/07 00:42:52;;;;;;;0.80;0.80;;;;;;;;;;6281276;28;20275;-70
2023/10/07 00:46:06;;;;;;;0.60;0.60;;;;;;;;;;6280176;28;20298;-69
2023/10/07 00:49:15;;;;;;;0.90;0.90;;;;;;;;;;6281019;28;20451;-69
2023/10/07 00:52:32;;;;;;;1.38;0.90;;;;;;;;;;6280608;28;20364;-70
2023/10/07 00:55:38;;;;;;;0.90;0.90;;;;;;;;;;6281229;28;20304;-70
2023/10/07 00:58:47;;;;;;;1.02;1.02;;;;;;;;;;6280174;28;20552;-70
2023/10/07 01:01:54;;;;;;;0.63;0.63;;;;;;;;;;6281819;28;20592;-70
2023/10/07 01:05:06;;;;;;;1.17;0.80;;;;;;;;;;6281567;28;20298;-70
2023/10/07 01:08:12;;;;;;;0.68;0.68;;;;;;;;;;6244861;28;20303;-69
2023/10/07 01:11:23;;;;;;;1.05;1.05;;;;;;;;;;6256784;28;20302;-72
2023/10/07 01:14:28;;;;;;;0.65;0.50;;;;;;;;;;6278349;28;20298;-70
2023/10/07 01:17:32;;;;;;;0.60;0.60;;;;;;;;;;6281781;28;20855;-69
2023/10/07 01:20:48;;;;;;;0.38;0.38;;;;;;;;;;6281126;28;20322;-69
2023/10/07 01:23:53;;;;;;;0.40;0.40;;;;;;;;;;6281320;28;20307;-69
2023/10/07 01:27:02;;;;;;;0.68;0.60;;;;;;;;;;6281802;28;20452;-70
2023/10/07 01:30:15;;;;;;;0.60;0.60;;;;;;;;;;6281084;28;20580;-70
2023/10/07 01:33:25;;;;;;;0.85;0.73;;;;;;;;;;6281641;28;20291;-70
2023/10/07 01:36:30;;;;;;;0.40;0.40;;;;;;;;;;6280634;28;20291;-70
2023/10/07 01:39:41;;;;;;;0.50;0.50;;;;;;;;;;6279958;28;20302;-68
2023/10/07 01:42:45;;;;;;;4.65;0.50;;;;;;;;;;6280287;28;20291;-70
2023/10/07 01:45:52;;;;;;;0.52;0.52;;;;;;;;;;6280175;28;20403;-70
2023/10/07 01:48:57;;;;;;;0.77;0.60;;;;;;;;;;6280847;28;20294;-71
2023/10/07 01:52:03;;;;;;;0.45;0.45;;;;;;;;;;6281588;28;20251;-69
2023/10/07 01:55:10;;;;;;;1.25;0.70;;;;;;;;;;6279908;28;20289;-69
2023/10/07 01:58:15;;;;;;;1.30;1.05;;;;;;;;;;6280026;28;20302;-71
2023/10/07 02:01:21;;;;;;;0.40;0.40;;;;;;;;;;6279429;28;20803;-69
2023/10/07 02:04:27;;;;;;;0.50;0.50;;;;;;;;;;6280755;28;20326;-70
2023/10/07 02:07:36;;;;;;;0.85;0.85;;;;;;;;;;6280018;28;20585;-69
2023/10/07 02:10:42;;;;;;;0.40;0.40;;;;;;;;;;6279020;28;20460;-69
2023/10/07 02:13:46;;;;;;;0.70;0.55;;;;;;;;;;6277852;28;20291;-70
2023/10/07 02:16:50;;;;;;;0.45;0.45;;;;;;;;;;6313129;28;20250;-69
2023/10/07 02:19:57;;;;;;;0.45;0.40;;;;;;;;;;6278903;28;20291;-70
2023/10/07 02:23:02;;;;;;;0.40;0.40;;;;;;;;;;6279764;28;20306;-70
2023/10/07 02:26:15;;;;;;;0.85;0.57;;;;;;;;;;6280172;28;20299;-70
2023/10/07 02:29:21;;;;;;;0.73;0.73;;;;;;;;;;6279226;28;20327;-70
2023/10/07 02:32:25;;;;;;;0.55;0.55;;;;;;;;;;6279635;28;20303;-69
2023/10/07 02:35:31;;;;;;;0.75;0.55;;;;;;;;;;6283069;28;20501;-70
2023/10/07 02:38:38;;;;;;;0.43;0.43;;;;;;;;;;6316765;28;20302;-70
2023/10/07 02:41:46;;;;;;;1.77;1.30;;;;;;;;;;6283972;28;20283;-70
2023/10/07 02:44:54;;;;;;;2.55;1.05;;;;;;;;;;6283557;28;20286;-68
2023/10/07 02:48:00;;;;;;;0.57;0.57;;;;;;;;;;6284880;28;20294;-72
2023/10/07 02:51:09;;;;;;;0.63;0.60;;;;;;;;;;6284537;28;20495;-69
2023/10/07 02:54:17;;;;;;;1.17;0.98;;;;;;;;;;6283129;28;20302;-70
2023/10/07 02:57:39;;;;;;;0.40;0.40;;;;;;;;;;6283331;28;20725;-70
2023/10/07 03:00:49;;;;;;;1.92;0.90;;;;;;;;;;6284198;28;20379;-71
2023/10/07 03:04:00;;;;;;;3.30;0.50;;;;;;;;;;6280582;28;20304;-70
2023/10/07 03:07:13;;;;;;;0.40;0.40;;;;;;;;;;6284519;28;20279;-70
2023/10/07 03:10:30;;;;;;;0.50;0.50;;;;;;;;;;6283975;28;20623;-70
2023/10/07 03:13:37;;;;;;;2.90;0.63;;;;;;;;;;6281979;28;20302;-71
2023/10/07 03:16:46;;;;;;;0.47;0.47;;;;;;;;;;6282974;28;20461;-71
2023/10/07 03:19:53;;;;;;;0.73;0.40;;;;;;;;;;6283670;28;20556;-70
2023/10/07 03:23:14;;;;;;;0.70;0.70;;;;;;;;;;6283464;28;20295;-70
2023/10/07 03:26:21;;;;;;;0.40;0.40;;;;;;;;;;6283994;28;20291;-71
2023/10/07 03:29:30;;;;;;;0.50;0.50;;;;;;;;;;6283341;28;20603;-70
2023/10/07 03:32:54;;;;;;;0.63;0.40;;;;;;;;;;6283336;28;20299;-70
2023/10/07 03:36:15;;;;;;;0.95;0.80;;;;;;;;;;6282496;28;20643;-69
2023/10/07 03:39:42;;;;;;;0.40;0.40;;;;;;;;;;6284362;28;20485;-69
2023/10/07 03:42:46;;;;;;;0.40;0.40;;;;;;;;;;6282874;28;20319;-71
2023/10/07 03:45:51;;;;;;;0.40;0.40;;;;;;;;;;6282204;28;20271;-70
2023/10/07 03:48:56;;;;;;;0.45;0.45;;;;;;;;;;6282843;28;20303;-71
2023/10/07 03:52:03;;;;;;;0.43;0.43;;;;;;;;;;6283512;28;20255;-71
2023/10/07 03:55:08;;;;;;;0.40;0.40;;;;;;;;;;6282425;28;20291;-70
2023/10/07 03:58:19;;;;;;;3.30;0.50;;;;;;;;;;6282370;28;20299;-70
2023/10/07 04:01:26;;;;;;;1.55;0.47;;;;;;;;;;6283035;28;20453;-69
2023/10/07 04:04:31;;;;;;;1.30;0.40;;;;;;;;;;6282514;28;20308;-71
2023/10/07 04:07:35;;;;;;;1.02;1.02;;;;;;;;;;6282260;28;20296;-71
2023/10/07 04:10:43;;;;;;;0.40;0.40;;;;;;;;;;6282708;28;20311;-70
2023/10/07 04:13:53;;;;;;;0.40;0.40;;;;;;;;;;6280631;28;20303;-70
2023/10/07 04:17:00;;;;;;;0.43;0.43;;;;;;;;;;6282437;28;20379;-71
2023/10/07 04:20:18;;;;;;;1.00;0.43;;;;;;;;;;6281884;28;20306;-70
2023/10/07 04:23:24;;;;;;;3.30;0.50;;;;;;;;;;6282093;28;20627;-69
2023/10/07 04:26:28;;;;;;;0.43;0.43;;;;;;;;;;6281100;28;20505;-70
2023/10/07 04:29:33;;;;;;;2.45;0.50;;;;;;;;;;6281713;28;20299;-70
2023/10/07 04:32:52;;;;;;;0.30;0.30;;;;;;;;;;6281630;28;20299;-70
2023/10/07 04:35:58;;;;;;;0.47;0.47;;;;;;;;;;6282172;28;20291;-71
2023/10/07 04:39:15;;;;;;;0.40;0.40;;;;;;;;;;6281645;28;20295;-71
2023/10/07 04:42:21;;;;;;;0.40;0.40;;;;;;;;;;6236332;28;20308;-70
2023/10/07 04:45:36;;;;;;;0.40;0.40;;;;;;;;;;6232161;28;20507;-71
2023/10/07 04:48:54;;;;;;;0.50;0.50;;;;;;;;;;6232277;28;20592;-70
2023/10/07 04:51:59;;;;;;;1.00;0.60;;;;;;;;;;6256443;28;20280;-70
2023/10/07 04:55:03;;;;;;;0.50;0.50;;;;;;;;;;6257025;28;20359;-70
2023/10/07 04:58:12;;;;;;;0.50;0.50;;;;;;;;;;6255632;28;20314;-71
2023/10/07 05:01:30;;;;;;;0.50;0.50;;;;;;;;;;6256852;28;20291;-70
2023/10/07 05:04:39;;;;;;;1.02;0.50;;;;;;;;;;6256686;28;20339;-69
2023/10/07 05:07:43;;;;;;;0.50;0.50;;;;;;;;;;6256426;28;20303;-70
2023/10/07 05:10:52;;;;;;;0.50;0.50;;;;;;;;;;6268276;28;20339;-70
2023/10/07 05:13:56;;;;;;;0.50;0.50;;;;;;;;;;6279731;28;20462;-71
2023/10/07 05:17:00;;;;;;;1.77;0.50;;;;;;;;;;6281595;28;20435;-71
2023/10/07 05:20:26;;;;;;;0.60;0.60;;;;;;;;;;6280658;28;20295;-70
2023/10/07 05:23:30;;;;;;;0.60;0.60;;;;;;;;;;6280979;28;20318;-68
2023/10/07 05:26:34;;;;;;;0.60;0.60;;;;;;;;;;6281353;28;20286;-69
2023/10/07 05:29:40;;;;;;;0.55;0.55;;;;;;;;;;6280658;28;20300;-69
2023/10/07 05:32:45;;;;;;;2.05;1.00;;;;;;;;;;6280534;28;20299;-69
2023/10/07 05:35:51;;;;;;;0.60;0.60;;;;;;;;;;6280960;28;20306;-70
2023/10/07 05:38:55;;;;;;;3.95;0.60;;;;;;;;;;6280374;28;20291;-69
2023/10/07 05:41:58;;;;;;;2.88;0.60;;;;;;;;;;6280939;28;20450;-70
2023/10/07 05:45:07;;;;;;;1.23;0.60;;;;;;;;;;6280754;28;20303;-71
2023/10/07 05:48:11;;;;;;;0.70;0.70;;;;;;;;;;6280599;28;20279;-69
2023/10/07 05:51:16;;;;;;;0.60;0.60;;;;;;;;;;6281338;28;20306;-70
2023/10/07 05:54:21;;;;;;;0.60;0.60;;;;;;;;;;6280185;28;20311;-71
2023/10/07 05:57:25;;;;;;;0.73;0.73;;;;;;;;;;6280545;28;20300;-70
2023/10/07 06:00:31;;;;;;;0.70;0.70;;;;;;;;;;6279982;28;20295;-70
2023/10/07 06:03:36;;;;;;;0.70;0.70;;;;;;;;;;6280043;28;20290;-70
2023/10/07 06:06:42;;;;;;;0.60;0.60;;;;;;;;;;6280510;28;20303;-69
2023/10/07 06:09:47;;;;;;;0.75;0.70;;;;;;;;;;6284561;28;20322;-70
2023/10/07 06:12:53;;;;;;;0.70;0.70;;;;;;;;;;6282197;28;20302;-70
2023/10/07 06:15:59;;;;;;;0.60;0.60;;;;;;;;;;6285505;28;20434;-69
2023/10/07 06:19:04;;;;;;;0.60;0.60;;;;;;;;;;6284699;28;20579;-69
2023/10/07 06:22:12;;;;;;;0.68;0.68;;;;;;;;;;6284815;28;20479;-69
2023/10/07 06:25:16;;;;;;;0.75;0.65;;;;;;;;;;6284818;28;20299;-70
2023/10/07 06:28:29;;;;;;;0.68;0.63;;;;;;;;;;6284551;28;20299;-71
2023/10/07 06:31:35;;;;;;;0.70;0.70;;;;;;;;;;6284965;28;20299;-69
2023/10/07 06:34:41;;;;;;;1.63;0.68;;;;;;;;;;6284464;28;20310;-68
2023/10/07 06:37:47;;;;;;;0.73;0.73;;;;;;;;;;6284149;28;25681;-69
2023/10/07 06:40:53;;;;;;;0.80;0.80;;;;;;;;;;6284781;28;20292;-70
2023/10/07 06:44:02;;;;;;;0.90;0.80;;;;;;;;;;6284058;28;20299;-69
2023/10/07 06:47:10;;;;;;;0.70;0.70;;;;;;;;;;6284908;28;20299;-69
2023/10/07 06:50:19;;;;;;;0.80;0.80;;;;;;;;;;6283900;28;20295;-69
2023/10/07 06:53:26;;;;;;;1.85;0.90;;;;;;;;;;6283798;28;20295;-70
2023/10/07 06:56:33;;;;;;;1.00;1.00;;;;;;;;;;6284265;28;20302;-69
2023/10/07 06:59:40;;;;;;;0.88;0.88;;;;;;;;;;6283730;28;20299;-69
2023/10/07 07:02:54;;;;;;;0.90;0.90;;;;;;;;;;6283309;28;20311;-69
2023/10/07 07:05:58;;;;;;;0.82;0.80;;;;;;;;;;6284125;28;20295;-71
2023/10/07 07:09:41;;;;;;;1.20;0.70;;;;;;;;;;6283508;28;20312;-69
2023/10/07 07:12:28;;;;;;;1.70;0.82;;;;;;;;;;6258611;28;20300;-71
2023/10/07 07:15:37;;;;;;;1.10;0.80;;;;;;;;;;6257180;28;20308;-73
2023/10/07 07:18:43;;;;;;;0.70;0.70;;;;;;;;;;6257882;28;20304;-69
2023/10/07 07:21:48;;;;;;;0.90;0.90;;;;;;;;;;6258442;28;20562;-71
2023/10/07 07:24:53;;;;;;;0.80;0.80;;;;;;;;;;6258352;28;20375;-69
2023/10/07 07:27:58;;;;;;;0.70;0.70;;;;;;;;;;6258338;28;20299;-70
2023/10/07 07:31:10;;;;;;;0.85;0.85;;;;;;;;;;6258561;28;20236;-69
2023/10/07 07:34:21;;;;;;;1.05;0.90;;;;;;;;;;6258444;28;20580;-70
2023/10/07 07:37:25;;;;;;;1.08;1.08;;;;;;;;;;6258373;28;20407;-70
2023/10/07 07:40:36;;;;;;;0.70;0.70;;;;;;;;;;6250659;28;20298;-70
2023/10/07 07:43:42;;;;;;;0.60;0.60;;;;;;;;;;6282550;28;20299;-73
2023/10/07 07:46:52;;;;;;;0.80;0.80;;;;;;;;;;6283083;28;20307;-72
2023/10/07 07:50:06;;;;;;;1.25;0.90;;;;;;;;;;6282766;28;20306;-71
2023/10/07 07:53:12;;;;;;;0.88;0.88;;;;;;;;;;6282464;28;20303;-70
2023/10/07 07:56:20;;;;;;;2.45;0.80;;;;;;;;;;6282802;28;20478;-70
2023/10/07 07:59:24;;;;;;;0.80;0.80;;;;;;;;;;6280761;28;20287;-70
2023/10/07 08:02:28;;;;;;;0.68;0.68;;;;;;;;;;6281881;28;20306;-70
2023/10/07 08:05:36;;;;;;;0.60;0.60;;;;;;;;;;6282844;28;20560;-69
2023/10/07 08:08:40;;;;;;;0.70;0.70;;;;;;;;;;6282006;28;20295;-70
2023/10/07 08:11:45;;;;;;;2.00;0.90;;;;;;;;;;6282429;28;20306;-70
2023/10/07 08:14:50;;;;;;;3.10;0.77;;;;;;;;;;6280647;28;20302;-70
2023/10/07 08:17:56;;;;;;;0.82;0.82;;;;;;;;;;6281861;28;20290;-71
2023/10/07 08:21:09;;;;;;;0.70;0.70;;;;;;;;;;6282322;28;20354;-69
2023/10/07 08:24:13;;;;;;;0.52;0.52;;;;;;;;;;6279831;28;20484;-69
2023/10/07 08:30:49;;;;;;;0.82;0.82;;;;;;;;;;6256171;28;20302;-70
2023/10/07 08:34:09;;;;;;;0.65;0.65;;;;;;;;;;6281645;28;20294;-71
2023/10/07 08:37:15;;;;;;;1.65;0.70;;;;;;;;;;6282097;28;20318;-70
2023/10/07 08:40:26;;;;;;;0.90;0.90;;;;;;;;;;6281208;28;20262;-70
2023/10/07 08:43:37;;;;;;;1.02;0.90;;;;;;;;;;6281475;28;20295;-69
2023/10/07 08:46:48;;;;;;;0.80;0.80;;;;;;;;;;6281877;28;20299;-70
2023/10/07 08:49:56;;;;;;;0.77;0.77;;;;;;;;;;6281076;28;20290;-71
2023/10/07 08:53:06;;;;;;;0.80;0.80;;;;;;;;;;6281212;28;20306;-69
2023/10/07 08:56:11;;;;;;;1.35;0.98;;;;;;;;;;6281415;28;20299;-70
2023/10/07 08:59:17;;;;;;;0.70;0.70;;;;;;;;;;6280655;28;20445;-70
2023/10/07 09:05:44;;;;;;;0.80;0.80;;;;;;;;;;6280921;28;20270;-70
2023/10/07 09:08:49;;;;;;;1.65;0.90;;;;;;;;;;6280814;28;20401;-71
2023/10/07 09:11:54;;;;;;;0.90;0.90;;;;;;;;;;6281054;28;20294;-71
2023/10/07 09:15:07;;;;;;;1.00;1.00;;;;;;;;;;6279352;28;20596;-69
2023/10/07 09:18:17;;;;;;;0.80;0.80;;;;;;;;;;6280645;28;20299;-70
2023/10/07 09:21:22;;;;;;;1.48;0.80;;;;;;;;;;6281291;28;20306;-70
2023/10/07 09:24:26;;;;;;;1.10;1.00;;;;;;;;;;6280884;28;20306;-71
2023/10/07 09:27:36;;;;;;;0.70;0.70;;;;;;;;;;6280656;28;20572;-71
2023/10/07 09:30:48;;;;;;;1.80;1.02;;;;;;;;;;6281092;28;20308;-71
2023/10/07 09:33:52;;;;;;;0.98;0.98;;;;;;;;;;6279905;28;20553;-70
2023/10/07 09:36:57;;;;;;;0.80;0.80;;;;;;;;;;6281580;28;20311;-72
2023/10/07 09:40:19;;;;;;;1.98;0.73;;;;;;;;;;6280239;28;20322;-71
2023/10/07 09:43:26;;;;;;;2.72;0.90;;;;;;;;;;6282859;28;20475;-71
2023/10/07 09:46:39;;;;;;;1.02;1.00;;;;;;;;;;6286026;28;20299;-69
2023/10/07 09:49:44;;;;;;;0.80;0.80;;;;;;;;;;6285696;28;20383;-70
2023/10/07 09:53:14;;;;;;;0.90;0.90;;;;;;;;;;6285451;28;20303;-70
2023/10/07 09:56:31;;;;;;;0.93;0.93;;;;;;;;;;6285784;28;20648;-69
2023/10/07 09:59:40;;;;;;;0.80;0.75;;;;;;;;;;6285154;28;20449;-71
2023/10/07 10:03:03;;;;;;;0.90;0.90;;;;;;;;;;6285438;28;20294;-70
2023/10/07 10:06:17;;;;;;;0.90;0.90;;;;;;;;;;6285532;28;20334;-71
2023/10/07 10:09:27;;;;;;;1.38;0.90;;;;;;;;;;6286631;28;20307;-71
2023/10/07 10:12:49;;;;;;;2.70;1.02;;;;;;;;;;6285144;28;20306;-72
2023/10/07 10:15:55;;;;;;;1.10;1.10;;;;;;;;;;6284556;28;20271;-70
2023/10/07 10:19:21;;;;;;;1.20;1.20;;;;;;;;;;6284578;28;20318;-71
2023/10/07 10:22:26;;;;;;;0.73;0.73;;;;;;;;;;6285302;28;20298;-73
2023/10/07 10:25:36;;;;;;;0.80;0.80;;;;;;;;;;6265679;28;20300;-72
2023/10/07 10:28:41;;;;;;;1.20;1.10;;;;;;;;;;6285122;28;20302;-71
2023/10/07 10:31:52;;;;;;;1.00;1.00;;;;;;;;;;6284532;28;20303;-70
2023/10/07 10:35:00;;;;;;;1.27;1.27;;;;;;;;;;6284753;28;20286;-70
2023/10/07 10:38:09;;;;;;;0.80;0.80;;;;;;;;;;6284507;28;20298;-70
2023/10/07 10:41:15;;;;;;;1.00;1.00;;;;;;;;;;6284599;28;20311;-70
2023/10/07 10:44:20;;;;;;;1.73;1.63;;;;;;;;;;6282827;28;20294;-72
2023/10/07 10:47:24;;;;;;;0.90;0.90;;;;;;;;;;6285023;28;20314;-70
2023/10/07 10:50:29;;;;;;;2.75;1.63;;;;;;;;;;6283979;28;20291;-70
2023/10/07 10:53:34;;;;;;;1.40;1.30;;;;;;;;;;6283868;28;20323;-70
2023/10/07 10:56:55;;;;;;;1.48;1.30;;;;;;;;;;6284497;28;20464;-71
2023/10/07 11:00:06;;;;;;;0.90;0.90;;;;;;;;;;6283391;28;20499;-73
2023/10/07 11:03:15;;;;;;;1.00;1.00;;;;;;;;;;6284161;28;20295;-70
2023/10/07 11:06:20;;;;;;;1.13;1.13;;;;;;;;;;6284319;28;20624;-69
2023/10/07 11:09:26;;;;;;;1.00;1.00;;;;;;;;;;6283859;28;20306;-71
2023/10/07 11:12:32;;;;;;;0.77;0.77;;;;;;;;;;6281296;28;20325;-71
2023/10/07 11:15:36;;;;;;;1.00;1.00;;;;;;;;;;6282981;28;20306;-71
2023/10/07 11:18:45;;;;;;;0.80;0.80;;;;;;;;;;6283741;28;20602;-70
2023/10/07 11:21:51;;;;;;;0.88;0.88;;;;;;;;;;6283187;28;20295;-70
2023/10/07 11:24:57;;;;;;;0.88;0.88;;;;;;;;;;6283730;28;20303;-70
2023/10/07 11:28:05;;;;;;;0.60;0.60;;;;;;;;;;6283537;28;20290;-70
2023/10/07 11:31:10;;;;;;;0.73;0.73;;;;;;;;;;6283766;28;20287;-70
2023/10/07 11:34:14;;;;;;;1.23;1.00;;;;;;;;;;6283410;28;20322;-70
2023/10/07 11:37:21;;;;;;;3.53;0.70;;;;;;;;;;6283911;28;20291;-69
2023/10/07 11:40:26;;;;;;;0.75;0.75;;;;;;;;;;6282919;28;20298;-71
2023/10/07 11:43:30;;;;;;;1.00;1.00;;;;;;;;;;6282935;28;20294;-70
2023/10/07 11:46:35;;;;;;;1.85;1.10;;;;;;;;;;6283430;28;20354;-70
2023/10/07 11:49:39;;;;;;;2.92;0.73;;;;;;;;;;6283118;28;20299;-69
2023/10/07 11:52:46;;;;;;;0.70;0.70;;;;;;;;;;6282927;28;20302;-72
2023/10/07 11:55:50;;;;;;;0.90;0.90;;;;;;;;;;6281098;28;20311;-69
2023/10/07 11:58:54;;;;;;;0.70;0.70;;;;;;;;;;6282463;28;20606;-68
2023/10/07 12:01:58;;;;;;;0.90;0.90;;;;;;;;;;6282857;28;20383;-69
2023/10/07 12:05:05;;;;;;;0.70;0.70;;;;;;;;;;6282068;28;20291;-69
2023/10/07 12:08:11;;;;;;;0.90;0.90;;;;;;;;;;6282109;28;20291;-70
2023/10/07 12:11:18;;;;;;;0.82;0.80;;;;;;;;;;6282773;28;20368;-71
2023/10/07 12:14:23;;;;;;;1.65;0.70;;;;;;;;;;6280643;28;20532;-69
2023/10/07 12:17:27;;;;;;;0.70;0.70;;;;;;;;;;6282273;28;20441;-69
2023/10/07 12:20:31;;;;;;;0.98;0.80;;;;;;;;;;6282586;28;20299;-69
2023/10/07 12:23:38;;;;;;;2.55;0.70;;;;;;;;;;6281918;28;20295;-70
2023/10/07 12:26:45;;;;;;;0.98;0.98;;;;;;;;;;6282556;28;20334;-70
2023/10/07 12:29:49;;;;;;;1.35;0.70;;;;;;;;;;6281800;28;20306;-69
2023/10/07 12:32:53;;;;;;;1.85;0.60;;;;;;;;;;6281990;28;20283;-71
2023/10/07 12:35:57;;;;;;;0.50;0.50;;;;;;;;;;6282499;28;20441;-70
2023/10/07 12:39:09;;;;;;;1.55;0.80;;;;;;;;;;6281896;28;20311;-70
2023/10/07 12:42:14;;;;;;;0.60;0.60;;;;;;;;;;6257334;28;20632;-69
2023/10/07 12:45:18;;;;;;;0.80;0.60;;;;;;;;;;6256963;28;20287;-71
2023/10/07 12:48:22;;;;;;;2.78;0.75;;;;;;;;;;6256864;28;20319;-70
2023/10/07 12:51:26;;;;;;;6.57;0.60;;;;;;;;;;6257221;28;20295;-70
2023/10/07 12:54:32;;;;;;;3.20;0.80;;;;;;;;;;6257352;28;20295;-70
2023/10/07 12:57:39;;;;;;;0.73;0.73;;;;;;;;;;6257279;28;20299;-73
2023/10/07 13:00:43;;;;;;;0.95;0.95;;;;;;;;;;6264243;28;20294;-70
2023/10/07 13:03:47;;;;;;;0.80;0.80;;;;;;;;;;6282202;28;20623;-70
2023/10/07 13:07:00;;;;;;;0.80;0.80;;;;;;;;;;6281066;28;20271;-73
2023/10/07 13:10:11;;;;;;;1.35;0.73;;;;;;;;;;6297156;28;20315;-70
2023/10/07 13:13:19;;;;;;;3.63;0.80;;;;;;;;;;6280447;28;20290;-70
2023/10/07 13:16:23;;;;;;;0.80;0.80;;;;;;;;;;6282111;28;20371;-70
2023/10/07 13:19:27;;;;;;;0.70;0.70;;;;;;;;;;6281259;28;20291;-70
2023/10/07 13:22:31;;;;;;;0.80;0.80;;;;;;;;;;6281660;28;20322;-70
2023/10/07 13:25:39;;;;;;;0.70;0.70;;;;;;;;;;6282091;28;20299;-70
2023/10/07 13:28:47;;;;;;;0.90;0.90;;;;;;;;;;6281765;28;20375;-71
2023/10/07 13:31:52;;;;;;;0.80;0.80;;;;;;;;;;6282201;28;20303;-70
2023/10/07 13:34:56;;;;;;;0.88;0.77;;;;;;;;;;6281567;28;20298;-70
2023/10/07 13:38:03;;;;;;;1.98;0.55;;;;;;;;;;6281373;28;20302;-70
2023/10/07 13:41:08;;;;;;;0.60;0.60;;;;;;;;;;6281867;28;20310;-70
2023/10/07 13:44:13;;;;;;;0.50;0.50;;;;;;;;;;6281437;28;20295;-70
2023/10/07 13:47:19;;;;;;;0.65;0.65;;;;;;;;;;6296675;28;20299;-70
2023/10/07 13:50:25;;;;;;;1.50;0.80;;;;;;;;;;6281189;28;20299;-70
2023/10/07 13:53:40;;;;;;;0.63;0.63;;;;;;;;;;6281182;28;20303;-71
2023/10/07 13:56:53;;;;;;;0.70;0.70;;;;;;;;;;6281710;28;20299;-70
2023/10/07 14:00:15;;;;;;;1.65;0.70;;;;;;;;;;6280998;28;20575;-70
2023/10/07 14:03:20;;;;;;;0.70;0.70;;;;;;;;;;6280835;28;20326;-70
2023/10/07 14:06:27;;;;;;;0.70;0.70;;;;;;;;;;6281309;28;20641;-71
2023/10/07 14:09:38;;;;;;;0.73;0.57;;;;;;;;;;6282280;28;20584;-70
2023/10/07 14:12:43;;;;;;;0.80;0.80;;;;;;;;;;6305690;28;20504;-71
2023/10/07 14:15:49;;;;;;;0.85;0.70;;;;;;;;;;6305750;28;20294;-70
2023/10/07 14:18:53;;;;;;;1.00;1.00;;;;;;;;;;6304593;28;20301;-70
2023/10/07 14:21:57;;;;;;;0.90;0.90;;;;;;;;;;6306048;28;20266;-70
2023/10/07 14:25:01;;;;;;;0.90;0.90;;;;;;;;;;6305092;28;20310;-71
2023/10/07 14:28:08;;;;;;;0.90;0.90;;;;;;;;;;6305824;28;20306;-70
2023/10/07 14:31:13;;;;;;;0.77;0.77;;;;;;;;;;6310347;28;20502;-72
2023/10/07 14:34:17;;;;;;;1.10;1.10;;;;;;;;;;6309673;28;20314;-70
2023/10/07 14:37:22;;;;;;;1.35;1.00;;;;;;;;;;6310264;28;20317;-71
2023/10/07 14:40:26;;;;;;;1.05;0.80;;;;;;;;;;6309272;28;20296;-71
2023/10/07 14:43:31;;;;;;;0.80;0.80;;;;;;;;;;6334312;28;20580;-72
2023/10/07 14:46:37;;;;;;;0.80;0.80;;;;;;;;;;6334800;28;20302;-71
2023/10/07 14:49:41;;;;;;;6.07;0.90;;;;;;;;;;6334521;28;20297;-71
2023/10/07 14:52:48;;;;;;;1.40;0.77;;;;;;;;;;6334213;28;20289;-71
2023/10/07 14:55:53;;;;;;;0.70;0.70;;;;;;;;;;6334704;28;20609;-71
2023/10/07 14:58:59;;;;;;;0.88;0.88;;;;;;;;;;6334138;28;20312;-71
2023/10/07 15:02:04;;;;;;;0.90;0.90;;;;;;;;;;6334398;28;20309;-72
2023/10/07 15:05:10;;;;;;;0.77;0.77;;;;;;;;;;6334184;28;20607;-72
2023/10/07 15:08:16;;;;;;;0.80;0.80;;;;;;;;;;6333648;28;20563;-71
2023/10/07 15:11:21;;;;;;;1.45;0.90;;;;;;;;;;6318591;28;20840;-71
2023/10/07 15:14:27;;;;;;;3.92;0.80;;;;;;;;;;6307211;28;20291;-71
2023/10/07 15:17:30;;;;;;;0.80;0.80;;;;;;;;;;6308494;28;20306;-73
2023/10/07 15:20:34;;;;;;;0.80;0.80;;;;;;;;;;6323655;28;20449;-70
2023/10/07 15:23:38;;;;;;;0.90;0.90;;;;;;;;;;6308316;28;20298;-70
2023/10/07 15:26:43;;;;;;;1.08;1.08;;;;;;;;;;6309029;28;20646;-70
2023/10/07 15:29:48;;;;;;;1.98;0.70;;;;;;;;;;6308883;28;20294;-71
2023/10/07 15:32:52;;;;;;;0.70;0.70;;;;;;;;;;6308363;28;20294;-70
2023/10/07 15:35:59;;;;;;;1.13;1.08;;;;;;;;;;6309541;28;20294;-70
2023/10/07 15:39:04;;;;;;;3.10;1.10;;;;;;;;;;6290229;28;20293;-71
2023/10/07 15:42:12;;;;;;;1.90;1.80;;;;;;;;;;6333474;28;20305;-71
2023/10/07 15:45:20;;;;;;;1.00;1.00;;;;;;;;;;6331898;28;20285;-69
2023/10/07 15:48:27;;;;;;;1.00;1.00;;;;;;;;;;6333900;28;20293;-69
2023/10/07 15:51:32;;;;;;;2.00;1.13;;;;;;;;;;6315079;28;20289;-69
2023/10/07 15:54:36;;;;;;;1.17;1.00;;;;;;;;;;6348606;28;20336;-70
2023/10/07 15:57:40;;;;;;;1.10;1.10;;;;;;;;;;6333284;28;20318;-69
2023/10/07 16:00:47;;;;;;;1.00;1.00;;;;;;;;;;6333301;28;20325;-70
2023/10/07 16:03:51;;;;;;;0.90;0.90;;;;;;;;;;6331658;28;20298;-73
2023/10/07 16:07:01;;;;;;;1.13;1.00;;;;;;;;;;6333121;28;20593;-70
2023/10/07 16:10:07;;;;;;;3.03;1.20;;;;;;;;;;6326833;28;20314;-71
2023/10/07 16:13:11;;;;;;;1.08;1.08;;;;;;;;;;6305640;28;20471;-70
2023/10/07 16:16:16;;;;;;;0.85;0.85;;;;;;;;;;6307660;28;20583;-71
2023/10/07 16:19:20;;;;;;;2.25;1.20;;;;;;;;;;6307994;28;20303;-70
2023/10/07 16:22:25;;;;;;;1.30;0.90;;;;;;;;;;6307972;28;20610;-70
2023/10/07 16:25:29;;;;;;;1.95;1.10;;;;;;;;;;6306542;28;20317;-70
2023/10/07 16:28:32;;;;;;;3.05;1.30;;;;;;;;;;6306947;28;20310;-70
2023/10/07 16:31:38;;;;;;;1.35;1.10;;;;;;;;;;6307163;28;20501;-72
2023/10/07 16:34:42;;;;;;;1.20;1.20;;;;;;;;;;6306585;28;20330;-70
2023/10/07 16:37:46;;;;;;;2.38;1.30;;;;;;;;;;6307028;28;20282;-72
2023/10/07 16:40:50;;;;;;;1.90;1.80;;;;;;;;;;6306826;28;20298;-70
2023/10/07 16:43:54;;;;;;;1.85;1.75;;;;;;;;;;6331504;28;20447;-71
2023/10/07 16:46:59;;;;;;;1.10;0.95;;;;;;;;;;6331871;28;20289;-73
2023/10/07 16:50:08;;;;;;;1.38;1.38;;;;;;;;;;6331750;28;20301;-73
2023/10/07 16:53:12;;;;;;;0.90;0.90;;;;;;;;;;6330754;28;20293;-70
2023/10/07 16:56:16;;;;;;;1.10;1.10;;;;;;;;;;6331671;28;20333;-70
2023/10/07 16:59:20;;;;;;;3.00;1.27;;;;;;;;;;6331461;28;20377;-69
2023/10/07 17:02:26;;;;;;;1.00;1.00;;;;;;;;;;6331964;28;20301;-71
2023/10/07 17:05:33;;;;;;;1.17;1.02;;;;;;;;;;6330545;28;20301;-71
2023/10/07 17:08:38;;;;;;;1.15;1.05;;;;;;;;;;6331442;28;20598;-71
2023/10/07 17:11:42;;;;;;;1.70;1.15;;;;;;;;;;6312615;28;20278;-70
2023/10/07 17:14:47;;;;;;;0.77;0.77;;;;;;;;;;6304745;28;20548;-72
2023/10/07 17:17:52;;;;;;;0.80;0.80;;;;;;;;;;6305998;28;20294;-71
2023/10/07 17:20:58;;;;;;;1.38;1.13;;;;;;;;;;6306607;28;20290;-71
2023/10/07 17:24:04;;;;;;;0.85;0.85;;;;;;;;;;6305814;28;20306;-71
2023/10/07 17:27:08;;;;;;;1.00;1.00;;;;;;;;;;6306837;28;20337;-70
2023/10/07 17:30:15;;;;;;;0.90;0.90;;;;;;;;;;6305826;28;20309;-71
2023/10/07 17:33:21;;;;;;;0.85;0.85;;;;;;;;;;6305821;28;20353;-70
2023/10/07 17:36:25;;;;;;;2.28;1.20;;;;;;;;;;6306490;28;20556;-70
2023/10/07 17:39:29;;;;;;;1.25;0.90;;;;;;;;;;6305916;28;20583;-69
2023/10/07 17:42:33;;;;;;;2.30;0.90;;;;;;;;;;6305939;28;20302;-70
2023/10/07 17:45:39;;;;;;;1.00;1.00;;;;;;;;;;6306500;28;20286;-69
2023/10/07 17:48:44;;;;;;;1.30;1.00;;;;;;;;;;6312193;28;20289;-71
2023/10/07 17:51:48;;;;;;;1.20;1.20;;;;;;;;;;6305241;28;20271;-70
2023/10/07 17:54:53;;;;;;;4.93;2.20;;;;;;;;;;6330386;28;20293;-71
2023/10/07 17:57:56;;;;;;;2.60;1.65;;;;;;;;;;6330398;28;20578;-75
2023/10/07 18:01:00;;;;;;;1.25;1.25;;;;;;;;;;6330946;28;20265;-71
2023/10/07 18:04:06;;;;;;;3.90;1.42;;;;;;;;;;6332375;28;20290;-69
2023/10/07 18:07:10;;;;;;;2.20;1.42;;;;;;;;;;6335870;28;20285;-70
2023/10/07 18:10:15;;;;;;;1.75;1.55;;;;;;;;;;6328170;28;20389;-70
2023/10/07 18:13:18;;;;;;;1.00;1.00;;;;;;;;;;6308003;28;20290;-71
2023/10/07 18:16:22;;;;;;;1.05;1.05;;;;;;;;;;6310316;28;20294;-71
2023/10/07 18:19:28;;;;;;;2.05;0.90;;;;;;;;;;6309961;28;20306;-71
2023/10/07 18:22:31;;;;;;;0.88;0.88;;;;;;;;;;6310120;28;20562;-70
2023/10/07 18:25:35;;;;;;;1.63;1.10;;;;;;;;;;6310203;28;20282;-71
2023/10/07 18:28:39;;;;;;;1.08;1.00;;;;;;;;;;6291516;28;20465;-71
2023/10/07 18:31:44;;;;;;;0.80;0.80;;;;;;;;;;6310104;28;20295;-70
2023/10/07 18:34:50;;;;;;;0.95;0.95;;;;;;;;;;6309797;28;20318;-70
2023/10/07 18:37:54;;;;;;;0.90;0.90;;;;;;;;;;6309501;28;20393;-69
2023/10/07 18:40:58;;;;;;;1.15;1.10;;;;;;;;;;6309662;28;20302;-70
2023/10/07 18:44:02;;;;;;;1.63;0.80;;;;;;;;;;6333894;28;20289;-72
2023/10/07 18:47:06;;;;;;;1.70;1.60;;;;;;;;;;6335088;28;20297;-71
2023/10/07 18:50:14;;;;;;;1.10;1.10;;;;;;;;;;6334195;28;20301;-70